• Join FlightAware (Why Join?)
  • Login
  • US Flag 
03:49PM EDT


 

Airport Tracker/Info


-or-


 

Live Flight TrackerFlight Track Log ✈ SWA2114 ✈ 20-Apr-2013 ✈ KMKE - KPHX

Flight Track Log - Related Links

Times and Time Zones

All times are in EDT time to prevent confusion due to time zone crossing. See the SWA2114 flight status page for this flight to view local times or setup timezone preferences in your user account.

Time Position Orientation Groundspeed Altitude Reporting Facility
EDT Latitude Longitude Course Direction KTS MPH feet Rate Location/Type
09:34AM 42.9333 -87.9333 270° West 181 208 1,800  Level KMKE
09:35AM 42.9333 -88.0000 270° West 203 234 3,600 2,520 Climbing KMKE
09:37AM 42.9142 -88.1386 259° West 240 276 8,200 2,940 Climbing Chicago Center
09:38AM 42.9067 -88.2372 264° West 258 297 11,300 2,340 Climbing Chicago Center
09:39AM 42.9072 -88.3456 270° West 285 328 13,000 1,740 Climbing Chicago Center
09:40AM 42.9069 -88.4714 270° West 322 371 14,900 2,040 Climbing Chicago Center
09:41AM 42.9081 -88.6028 271° West 345 397 17,300 2,220 Climbing Chicago Center
09:42AM 42.9083 -88.7364 270° West 349 402 19,500 2,160 Climbing Chicago Center
09:43AM 42.9053 -88.8681 268° West 346 398 21,800 1,980 Climbing Chicago Center
09:44AM 42.8994 -88.9972 267° West 340 391 23,600 1,680 Climbing Chicago Center
09:45AM 42.8942 -89.1494 267° West 344 396 25,300 1,320 Climbing Chicago Center
09:46AM 42.8875 -89.2817 266° West 349 402 26,400 1,200 Climbing Chicago Center
09:47AM 42.8772 -89.4169 264° West 355 409 27,800 1,200 Climbing Chicago Center
09:48AM 42.8431 -89.5511 251° West 371 427 28,900 1,200 Climbing Chicago Center
09:49AM 42.8119 -89.6839 252° West 369 425 30,300 1,080 Climbing Chicago Center
09:50AM 42.7806 -89.8167 252° West 368 423 31,200 1,020 Climbing Chicago Center
09:51AM 42.7492 -89.9453 252° West 372 428 32,500 960 Climbing Chicago Center
09:52AM 42.7175 -90.0744 252° West 363 418 33,200 600 Climbing Chicago Center
09:53AM 42.6794 -90.2344 252° West 373 429 33,800 360 Climbing Chicago Center
09:54AM 42.6458 -90.3714 252° West 383 441 34,000 60 Climbing Chicago Center
09:55AM 42.6111 -90.5089 251° West 386 444 34,000  Level Chicago Center
09:56AM 42.5778 -90.6478 252° West 390 449 34,000  Level Chicago Center
09:57AM 42.5431 -90.7858 251° West 389 448 34,000  Level Chicago Center
09:58AM 42.5089 -90.9228 251° West 384 442 34,000  Level Chicago Center
09:59AM 42.4744 -91.0597 251° West 385 443 34,000  Level Chicago Center
10:00AM 42.4397 -91.1961 251° West 384 442 34,000  Level Chicago Center
10:01AM 42.3978 -91.3611 251° West 385 443 34,000  Level Chicago Center
10:02AM 42.3617 -91.4997 251° West 391 450 34,000  Level Chicago Center
10:03AM 42.3253 -91.6364 250° West 385 443 34,000  Level Chicago Center
10:04AM 42.2900 -91.7739 251° West 387 445 34,000  Level Chicago Center
10:05AM 42.2539 -91.9114 251° West 388 447 34,000  Level Chicago Center
10:06AM 42.2183 -92.0472 251° West 388 447 34,000  Level Chicago Center
10:07AM 42.1817 -92.1825 250° West 386 444 34,000  Level Chicago Center
10:08AM 42.1456 -92.3186 250° West 386 444 34,000  Level Chicago Center
10:09AM 42.1014 -92.4808 250° West 387 445 34,000  Level Chicago Center
10:10AM 42.0658 -92.6158 251° West 385 443 34,000  Level Chicago Center
10:11AM 42.0286 -92.7503 250° West 386 444 34,000  Level Chicago Center
10:12AM 41.9919 -92.8864 250° West 388 447 34,000  Level Chicago Center
10:14AM 41.9553 -93.0217 250° West 389 448 34,000  Level Chicago Center
10:15AM 41.9147 -93.1639 249° West 390 449 34,000  Level Minneapolis Center
10:16AM 41.8786 -93.2978 250° West 387 445 34,000  Level Minneapolis Center
10:17AM 41.8331 -93.4600 249° West 390 449 34,000  Level Minneapolis Center
10:18AM 41.7967 -93.5906 250° West 381 438 34,000  Level Minneapolis Center
10:19AM 41.7597 -93.7231 250° West 381 438 34,000  Level Minneapolis Center
10:20AM 41.7217 -93.8564 249° West 385 443 34,000  Level Minneapolis Center
10:21AM 41.6853 -93.9864 249° West 382 440 34,000  Level Minneapolis Center
10:22AM 41.6381 -94.1186 244° Southwest 387 445 34,000  Level Minneapolis Center
10:23AM 41.5464 -94.2431 225° Southwest 392 451 34,000  Level Minneapolis Center
10:24AM 41.4675 -94.3467 225° Southwest 395 455 34,000  Level Minneapolis Center
10:25AM 41.3947 -94.4531 228° Southwest 392 451 34,000  Level Minneapolis Center
10:26AM 41.3272 -94.5642 231° Southwest 397 457 34,000  Level Minneapolis Center
10:27AM 41.2853 -94.6925 247° West 383 441 34,000  Level Minneapolis Center
10:28AM 41.2447 -94.8219 247° West 380 437 34,000  Level Minneapolis Center
10:29AM 41.2036 -94.9514 247° West 379 436 34,000  Level Minneapolis Center
10:30AM 41.1611 -95.0789 246° West 378 435 34,000  Level Minneapolis Center
10:31AM 41.1189 -95.2097 247° West 382 440 34,000  Level Minneapolis Center
10:32AM 41.0764 -95.3408 247° West 385 443 34,000  Level Minneapolis Center
10:33AM 41.0336 -95.4706 246° West 384 442 34,000  Level Minneapolis Center
10:34AM 40.9828 -95.6264 247° West 384 442 34,000  Level Minneapolis Center
10:35AM 40.9400 -95.7542 246° West 379 436 34,000  Level Minneapolis Center
10:36AM 40.8972 -95.8828 246° West 380 437 34,000  Level Minneapolis Center
10:37AM 40.8542 -96.0108 246° West 379 436 34,000  Level Minneapolis Center
10:38AM 40.8117 -96.1400 247° West 380 437 34,000  Level Minneapolis Center
10:39AM 40.7675 -96.2686 246° West 382 440 34,000  Level Minneapolis Center
10:40AM 40.7236 -96.3981 246° West 384 442 34,000  Level Minneapolis Center
10:41AM 40.6789 -96.5272 245° Southwest 386 444 34,000  Level Minneapolis Center
10:42AM 40.6356 -96.6556 246° West 384 442 34,000  Level Minneapolis Center
10:43AM 40.5900 -96.7864 245° Southwest 388 447 34,000  Level Minneapolis Center
10:44AM 40.5461 -96.9161 246° West 388 447 34,000  Level Minneapolis Center
10:45AM 40.4914 -97.0725 245° Southwest 391 450 34,000  Level Minneapolis Center
10:46AM 40.4456 -97.2042 245° Southwest 394 453 34,000  Level Minneapolis Center
10:47AM 40.4006 -97.3356 246° West 395 455 34,000  Level Minneapolis Center
10:48AM 40.3597 -97.4506 245° Southwest 396 456 34,000  Level Minneapolis Center
10:49AM 40.3031 -97.6097 245° Southwest 399 459 34,000  Level Minneapolis Center
10:50AM 40.2564 -97.7419 245° Southwest 398 458 34,000  Level Minneapolis Center
10:51AM 40.2092 -97.8725 245° Southwest 397 457 34,000  Level Minneapolis Center
10:52AM 40.1617 -98.0050 245° Southwest 399 459 34,000  Level Minneapolis Center
10:53AM 40.1139 -98.1361 245° Southwest 399 459 34,000  Level Minneapolis Center
10:55AM 40.0675 -98.2669 245° Southwest 397 457 34,000  Level Minneapolis Center
10:56AM 40.0200 -98.3978 245° Southwest 397 457 34,000  Level Minneapolis Center
10:57AM 39.9717 -98.5281 244° Southwest 398 458 34,000  Level Minneapolis Center
10:58AM 39.9244 -98.6586 245° Southwest 397 457 34,000  Level Minneapolis Center
10:59AM 39.8758 -98.7881 244° Southwest 397 457 34,000  Level Minneapolis Center
10:59AM 39.8372 -98.8939 245° Southwest 398 458 34,000  Level Denver Center
11:00AM 39.7886 -99.0242 244° Southwest 399 459 34,000  Level Denver Center
11:01AM 39.7397 -99.1553 244° Southwest 400 460 34,000  Level Denver Center
11:02AM 39.6908 -99.2856 244° Southwest 401 461 34,000  Level Denver Center
11:03AM 39.6417 -99.4164 244° Southwest 401 461 34,000  Level Denver Center
11:04AM 39.5933 -99.5458 244° Southwest 399 459 34,000  Level Denver Center
11:05AM 39.5442 -99.6733 243° Southwest 395 455 34,000  Level Denver Center
11:06AM 39.4861 -99.8256 244° Southwest 395 455 34,000  Level Denver Center
11:08AM 39.4392 -99.9472 243° Southwest 394 453 34,000  Level Denver Center
11:09AM 39.3853 -100.0894 244° Southwest 395 455 34,000  Level Denver Center
11:10AM 39.3375 -100.2086 243° Southwest 390 449 34,000  Level Denver Center
11:11AM 39.2906 -100.3317 244° Southwest 395 455 34,000  Level Denver Center
11:12AM 39.2442 -100.4531 244° Southwest 394 453 34,000  Level Denver Center
11:13AM 39.1889 -100.5919 243° Southwest 391 450 34,000  Level Denver Center
11:14AM 39.1331 -100.7317 243° Southwest 392 451 34,000  Level Denver Center
11:15AM 39.0864 -100.8531 244° Southwest 394 453 34,000  Level Denver Center
11:16AM 39.0303 -100.9922 243° Southwest 394 453 34,000  Level Denver Center
11:17AM 38.9822 -101.1119 243° Southwest 396 456 34,000  Level Denver Center
11:18AM 38.9264 -101.2542 243° Southwest 400 460 34,000  Level Denver Center
11:19AM 38.8778 -101.3733 242° Southwest 396 456 34,000  Level Denver Center
11:20AM 38.8203 -101.5150 243° Southwest 402 463 34,000  Level Denver Center
11:21AM 38.7711 -101.6356 242° Southwest 401 461 34,000  Level Denver Center
11:22AM 38.7144 -101.7775 243° Southwest 402 463 34,000  Level Denver Center
11:23AM 38.6642 -101.8981 242° Southwest 402 463 34,000  Level Denver Center
11:24AM 38.6147 -102.0181 242° Southwest 401 461 34,000  Level Denver Center
11:25AM 38.5575 -102.1606 243° Southwest 404 465 34,000  Level Denver Center
11:26AM 38.5069 -102.2806 242° Southwest 404 465 34,000  Level Denver Center
11:27AM 38.4497 -102.4203 242° Southwest 401 461 34,000  Level Denver Center
11:28AM 38.4011 -102.5400 243° Southwest 399 459 34,000  Level Denver Center
11:29AM 38.3406 -102.6817 241° Southwest 404 465 34,000  Level Denver Center
11:30AM 38.2914 -102.8000 242° Southwest 400 460 34,000  Level Denver Center
11:31AM 38.2325 -102.9400 242° Southwest 401 461 34,000  Level Denver Center
11:32AM 38.1806 -103.0606 241° Southwest 403 464 34,000  Level Denver Center
11:33AM 38.1283 -103.1814 241° Southwest 401 461 34,000  Level Denver Center
11:34AM 38.0686 -103.3211 242° Southwest 403 464 34,000  Level Denver Center
11:35AM 38.0175 -103.4400 241° Southwest 403 464 34,000  Level Denver Center
11:36AM 37.9575 -103.5800 242° Southwest 404 465 34,000  Level Denver Center
11:37AM 37.9061 -103.6992 241° Southwest 405 466 34,000  Level Denver Center
11:38AM 37.8458 -103.8378 241° Southwest 404 465 34,000  Level Denver Center
11:39AM 37.7944 -103.9564 241° Southwest 403 464 34,000  Level Denver Center
11:40AM 37.7336 -104.0925 241° Southwest 403 464 34,000  Level Denver Center
11:42AM 37.6831 -104.2078 241° Southwest 399 459 34,000  Level Denver Center
11:43AM 37.6233 -104.3436 241° Southwest 400 460 34,000  Level Denver Center
11:44AM 37.5706 -104.4614 241° Southwest 404 465 34,000  Level Denver Center
11:45AM 37.5092 -104.5994 241° Southwest 406 467 34,000  Level Denver Center
11:46AM 37.4564 -104.7189 241° Southwest 408 470 34,000  Level Denver Center
11:47AM 37.3947 -104.8564 241° Southwest 405 466 34,000  Level Denver Center
11:48AM 37.3408 -104.9750 240° Southwest 407 468 34,000  Level Denver Center
11:49AM 37.2875 -105.0919 240° Southwest 404 465 34,000  Level Denver Center
11:50AM 37.2244 -105.2294 240° Southwest 407 468 34,000  Level Denver Center
11:51AM 37.1711 -105.3475 240° Southwest 407 468 34,000  Level Denver Center
11:52AM 37.1089 -105.4850 240° Southwest 406 467 34,000  Level Denver Center
11:53AM 37.0536 -105.6011 239° Southwest 406 467 34,000  Level Denver Center
11:54AM 37.0114 -105.6986 242° Southwest 406 467 34,000  Level Albuquerque Center
11:55AM 36.9486 -105.8356 240° Southwest 414 476 34,000  Level Albuquerque Center
11:56AM 36.8953 -105.9544 241° Southwest 414 476 34,000  Level Albuquerque Center
11:57AM 36.8317 -106.0917 240° Southwest 413 475 34,000  Level Albuquerque Center
11:57AM 36.8194 -106.1125 234° Southwest 410 472 34,000  Level Denver Center
11:58AM 36.7550 -106.2464 239° Southwest 411 473 34,000  Level Denver Center
11:59AM 36.7008 -106.3622 240° Southwest 410 472 34,000  Level Denver Center
12:00PM 36.6436 -106.4850 240° Southwest 410 472 34,000  Level Denver Center
12:01PM 36.5986 -106.5814 240° Southwest 412 474 34,000  Level Albuquerque Center
12:02PM 36.5347 -106.7164 240° Southwest 408 470 34,000  Level Albuquerque Center
12:02PM 36.5250 -106.7339 235° Southwest 409 471 34,000  Level Denver Center
12:03PM 36.4608 -106.8689 239° Southwest 407 468 34,000  Level Denver Center
12:04PM 36.4058 -106.9836 239° Southwest 406 467 34,000  Level Denver Center
12:05PM 36.3608 -107.0814 240° Southwest 404 465 34,000  Level Albuquerque Center
12:06PM 36.3053 -107.1947 239° Southwest 402 463 34,000  Level Albuquerque Center
12:07PM 36.2414 -107.3289 239° Southwest 403 464 34,000  Level Albuquerque Center
12:08PM 36.1856 -107.4431 239° Southwest 404 465 34,000  Level Albuquerque Center
12:09PM 36.1219 -107.5750 239° Southwest 401 461 34,000  Level Albuquerque Center
12:10PM 36.0661 -107.6883 239° Southwest 402 463 34,000  Level Albuquerque Center
12:11PM 36.0103 -107.8019 239° Southwest 403 464 34,000  Level Albuquerque Center
12:12PM 35.9461 -107.9333 239° Southwest 400 460 34,000  Level Albuquerque Center
12:13PM 35.8897 -108.0469 239° Southwest 403 464 34,000  Level Albuquerque Center
12:14PM 35.8244 -108.1803 239° Southwest 404 465 34,000  Level Albuquerque Center
12:15PM 35.7678 -108.2931 238° Southwest 404 465 34,000  Level Albuquerque Center
12:16PM 35.7122 -108.4064 239° Southwest 403 464 34,000  Level Albuquerque Center
12:17PM 35.6456 -108.5381 238° Southwest 403 464 34,000  Level Albuquerque Center
12:18PM 35.5900 -108.6506 239° Southwest 402 463 34,000  Level Albuquerque Center
12:19PM 35.5244 -108.7789 238° Southwest 398 458 34,000  Level Albuquerque Center
12:20PM 35.4664 -108.8900 237° Southwest 399 459 34,000  Level Albuquerque Center
12:21PM 35.3886 -108.9875 226° Southwest 413 475 34,000  Level Albuquerque Center
12:22PM 35.3011 -109.1022 227° Southwest 412 474 34,000  Level Albuquerque Center
12:23PM 35.2258 -109.1994 227° Southwest 410 472 34,000  Level Albuquerque Center
12:24PM 35.1372 -109.3125 226° Southwest 411 473 34,000  Level Albuquerque Center
12:26PM 35.0614 -109.4108 227° Southwest 413 475 34,000  Level Albuquerque Center
12:27PM 34.9722 -109.5178 225° Southwest 403 464 34,000  Level Albuquerque Center
12:28PM 34.8969 -109.6142 226° Southwest 406 467 34,000  Level Albuquerque Center
12:29PM 34.8100 -109.7272 227° Southwest 408 470 34,000  Level Albuquerque Center
12:30PM 34.7356 -109.8214 226° Southwest 406 467 34,000  Level Albuquerque Center
12:31PM 34.6819 -109.9281 239° Southwest 387 445 34,000 -600 Level Albuquerque Center
12:32PM 34.6347 -110.0531 245° Southwest 367 422 32,800 -1,080 Descending Albuquerque Center
12:33PM 34.5975 -110.1644 248° West 370 426 31,800 -1,020 Descending Albuquerque Center
12:34PM 34.5519 -110.2931 247° West 370 426 30,800 -1,020 Descending Albuquerque Center
12:35PM 34.5064 -110.3947 241° Southwest 363 418 29,800 -960 Descending Albuquerque Center
12:36PM 34.4650 -110.5125 247° West 390 449 28,900 -960 Descending Albuquerque Center
12:37PM 34.4231 -110.6272 246° West 377 434 27,900 -1,140 Descending Albuquerque Center
12:38PM 34.3689 -110.7586 243° Southwest 367 422 26,600 -1,140 Descending Albuquerque Center
12:39PM 34.3072 -110.8550 232° Southwest 365 420 25,600 -1,020 Descending Albuquerque Center
12:40PM 34.2372 -110.9467 227° Southwest 370 426 24,600 -1,020 Descending Albuquerque Center
12:41PM 34.1669 -111.0381 227° Southwest 370 426 23,500 -1,560 Descending Albuquerque Center
12:42PM 34.0950 -111.1306 227° Southwest 376 433 21,400 -2,040 Descending Albuquerque Center
12:43PM 34.0261 -111.2192 227° Southwest 367 422 19,400 -1,920 Descending Albuquerque Center
12:44PM 33.9608 -111.3028 227° Southwest 348 400 17,500 -1,800 Descending Albuquerque Center
12:45PM 33.8856 -111.3997 227° Southwest 329 379 15,800 -1,620 Descending Albuquerque Center
12:46PM 33.8403 -111.4814 236° Southwest 295 339 14,300 -1,560 Descending Albuquerque Center
12:47PM 33.7975 -111.5631 238° Southwest 288 331 12,700 -1,560 Descending Albuquerque Center
12:48PM 33.7539 -111.6464 238° Southwest 292 336 11,100 -1,320 Descending Albuquerque Center
12:49PM 33.7111 -111.7278 238° Southwest 288 331 10,000 -600 Descending Albuquerque Center
12:50PM 33.6672 -111.8081 237° Southwest 285 328 9,900 -480 Descending Albuquerque Center
12:51PM 33.6239 -111.8858 236° Southwest 279 321 9,100 -540 Descending Albuquerque Center
12:52PM 33.5858 -111.9556 237° Southwest 254 292 8,900 -720 Descending Albuquerque Center
12:53PM 33.5506 -112.0242 238° Southwest 244 281 7,700 -1,020 Descending Albuquerque Center
12:54PM 33.5250 -112.1119 251° West 231 266 6,900 -900 Descending Albuquerque Center
12:55PM 33.5247 -112.1878 270° West 228 262 5,900 -1,080 Descending Albuquerque Center
12:56PM 33.4692 -112.2172 204° Southwest 241 277 4,700 -1,020 Descending Albuquerque Center
12:57PM 33.4411 -112.1633 122° Southeast 215 247 3,800 -1,020 Descending Albuquerque Center
12:59PM 33.4403 -112.1072 91° East 175 201 2,700 -1,080 Descending Albuquerque Center
01:00PM 33.4411 -112.0592 89° East 150 173 1,700 -840 Descending Albuquerque Center
01:01PM 33.4394 -112.0078 92° East 141 162 1,100 -600 Descending Albuquerque Center